Schedule Details


Flight Number: CTN4466
Departure: Cilipi (LDDU) at 17:15
Arrival: Zurich (LSZH) at 19:30
Route: AMUGO L611 UVODI L862 SABAD DCT GIMIX DCT ERKIR L608 KPT L856 NEGRA

Weather Information
LDDU 170000Z 02012KT 320V120 CAVOK 14/05 Q1017
LSZH 170020Z AUTO 00000KT 0500 0050N R14/0600N R16/0600U R28/0550U R34/P2000N FG VCFG VV002 05/05 Q1021 TEMPO 0300 FG VV001
Schedule Frequency

Route Map